• Join FlightAware (Why Join?)
  • Login
  • US Flag 
03:37AM EDT


 

Airport Tracker/Info


-or-


 

Live Flight TrackerFlight Track Log ✈ UAL4563 ✈ 25-Apr-2013 ✈ KCLE - KMHT

Flight Track Log - Related Links

Times and Time Zones

All times are in EDT time to prevent confusion due to time zone crossing. See the UAL4563 flight status page for this flight to view local times or setup timezone preferences in your user account.

Time Position Orientation Groundspeed Altitude Reporting Facility
EDT Latitude Longitude Course Direction KTS MPH feet Rate Location/Type
07:21PM 41.3939 -81.8814 266° West 157 181 1,700  Level Cleveland Center
07:22PM 41.3911 -81.9339 266° West 184 212 3,500 2,580 Climbing Cleveland Center
07:23PM 41.4197 -81.9981 301° West 236 272 6,400 2,880 Climbing Cleveland Center
07:24PM 41.4567 -82.0406 319° Northwest 243 280 9,000 2,520 Climbing Cleveland Center
07:25PM 41.5217 -82.0058 22° Northeast 227 261 11,200 1,560 Climbing Cleveland Center
07:26PM 41.5772 -81.9044 54° Northeast 267 307 12,200 1,200 Climbing Cleveland Center
07:27PM 41.6389 -81.7889 54° Northeast 332 382 13,700 1,500 Climbing Cleveland Center
07:28PM 41.7006 -81.6706 55° Northeast 377 434 15,300 1,500 Climbing Cleveland Center
07:29PM 41.7661 -81.5519 53° Northeast 393 452 16,800 1,260 Climbing Cleveland Center
07:30PM 41.8317 -81.4247 55° Northeast 405 466 17,900 1,020 Climbing Cleveland Center
07:31PM 41.8578 -81.2886 76° East 405 466 18,900 1,140 Climbing Cleveland Center
07:32PM 41.8836 -81.1325 77° East 424 488 20,200 1,260 Climbing Cleveland Center
07:33PM 41.9092 -80.9681 78° East 438 504 21,500 1,260 Climbing Cleveland Center
07:34PM 41.9369 -80.8064 77° East 438 504 22,800 1,200 Climbing Cleveland Center
07:35PM 41.9642 -80.6419 77° East 443 510 24,000 1,140 Climbing Cleveland Center
07:36PM 41.9911 -80.4603 79° East 448 516 25,100 1,080 Climbing Cleveland Center
07:37PM 42.0158 -80.2925 79° East 448 516 26,200 1,020 Climbing Cleveland Center
07:38PM 42.0403 -80.1275 79° East 448 516 27,200 1,020 Climbing Cleveland Center
07:39PM 42.0667 -79.9650 78° East 448 516 28,300 1,020 Climbing Cleveland Center
07:40PM 42.0908 -79.8025 79° East 448 516 29,300 960 Climbing Cleveland Center
07:41PM 42.1144 -79.6400 79° East 448 516 30,300 840 Climbing Cleveland Center
07:42PM 42.1381 -79.4717 79° East 448 516 31,000 300 Climbing Cleveland Center
07:43PM 42.1633 -79.2975 79° East 453 521 31,000  Level Cleveland Center
07:44PM 42.1864 -79.1233 80° East 459 528 31,000  Level Cleveland Center
07:45PM 42.2108 -78.9433 80° East 473 544 31,000  Level Cleveland Center
07:46PM 42.2353 -78.7658 79° East 479 551 31,000  Level Cleveland Center
07:47PM 42.2575 -78.5858 80° East 479 551 31,000  Level Cleveland Center
07:48PM 42.2814 -78.4081 80° East 484 557 31,000  Level Cleveland Center
07:49PM 42.3028 -78.2278 81° East 484 557 31,000  Level Cleveland Center
07:50PM 42.3239 -78.0500 81° East 484 557 31,000  Level Cleveland Center
07:51PM 42.3450 -77.8722 81° East 484 557 31,000  Level Cleveland Center
07:52PM 42.3656 -77.6914 81° East 484 557 31,000  Level Cleveland Center
07:53PM 42.3864 -77.5272 80° East 484 557 31,000  Level Cleveland Center
07:54PM 42.4044 -77.3464 82° East 484 557 31,000  Level Cleveland Center
07:56PM 42.4450 -76.9792 81° East 493 567 31,000  Level Boston Center
07:57PM 42.4647 -76.7975 82° East 493 567 31,000  Level Boston Center
07:58PM 42.4842 -76.6158 82° East 493 567 31,000  Level Boston Center
07:59PM 42.5033 -76.4311 82° East 493 567 31,000  Level Boston Center
08:00PM 42.5247 -76.2325 82° East 493 567 31,000 -600 Level Boston Center
08:01PM 42.5431 -76.0503 82° East 487 560 29,900 -1,020 Descending Boston Center
08:02PM 42.5611 -75.8708 82° East 482 555 29,000 -480 Descending Boston Center
08:03PM 42.5769 -75.6914 83° East 482 555 29,000  Level Boston Center
08:04PM 42.5967 -75.5089 82° East 482 555 29,000 -60 Level Boston Center
08:05PM 42.6139 -75.3264 83° East 482 555 28,900  Descending Boston Center
08:06PM 42.6308 -75.1436 83° East 482 555 29,000  Climbing Boston Center
08:07PM 42.6475 -74.9636 83° East 482 555 29,000  Level Boston Center
08:08PM 42.6639 -74.7808 83° East 482 555 29,000  Level Boston Center
08:09PM 42.6800 -74.6006 83° East 482 555 29,000  Level Boston Center
08:10PM 42.6958 -74.4175 83° East 482 555 29,000  Level Boston Center
08:11PM 42.7114 -74.2372 83° East 482 555 29,000 -780 Level Boston Center
08:12PM 42.7267 -74.0511 84° East 482 555 27,500 -1,740 Descending Boston Center
08:13PM 42.7394 -73.8733 84° East 482 555 25,600 -1,680 Descending Boston Center
08:14PM 42.7542 -73.6900 84° East 482 555 24,200 -1,380 Descending Boston Center
08:15PM 42.7600 -73.5175 87° East 477 549 22,900 -1,380 Descending Boston Center
08:16PM 42.7636 -73.3536 88° East 456 525 21,500 -960 Descending Boston Center
08:17PM 42.7711 -73.1839 86° East 443 510 21,000 -300 Descending Boston Center
08:18PM 42.7761 -73.0256 87° East 433 498 21,000 -240 Level Boston Center
08:19PM 42.7789 -72.8586 89° East 433 498 20,600 -1,380 Descending Boston Center
08:20PM 42.7856 -72.7031 87° East 433 498 18,300 -2,040 Descending Boston Center
08:21PM 42.7900 -72.5703 87° East 406 467 16,600 -1,800 Descending Boston Center
08:22PM 42.7900 -72.4400 90° East 370 426 14,800 -1,920 Descending Boston Center
08:23PM 42.7942 -72.3214 87° East 334 384 12,800 -2,220 Descending Boston Center
08:24PM 42.8003 -72.1994 86° East 293 337 10,400 -1,800 Descending Boston Center
08:25PM 42.8083 -72.0892 84° East 288 331 9,200 -960 Descending Boston Center
08:26PM 42.8058 -71.9872 92° East 280 322 8,500 -960 Descending Boston Center
08:27PM 42.8014 -71.8828 93° East 275 316 7,300 -1,260 Descending Boston Center
08:28PM 42.7944 -71.7781 95° East 270 311 6,000 -1,440 Descending Boston Center
08:29PM 42.7875 -71.6819 96° East 270 311 4,500 -1,200 Descending Boston Center
08:30PM 42.7828 -71.5858 94° East 260 299 3,700 -900 Descending Boston Center
08:31PM 42.7758 -71.5067 97° East 241 277 2,700 -600 Descending Boston Center
08:32PM 42.7856 -71.4189 81° East 215 247 2,500 -180 Descending Boston Center
08:33PM 42.8186 -71.3758 44° Northeast 183 211 2,400 -480 Descending Boston Center
08:34PM 42.8583 -71.3922 343° North 126 145 1,600 -720 Descending Boston Center
08:35PM 42.8875 -71.4058 341° North 131 151 1,000 -600 Descending Boston Center
08:36PM 42.9275 -71.4333 333° Northwest 131 151 300 8,280 Descending Boston Center
08:37PM 42.9650 -71.4583 334° Northwest 131 151 21,000 10,320 Climbing Boston Center
08:38PM 42.9967 -71.4778 336° Northwest 131 151 21,000  Level Boston Center
08:40PM 42.9328 -71.4358 160° South  Level Estimated
08:47PM 42.9328 -71.4358 160° South  Level Estimated
08:48PM 42.9328 -71.4358 160° South  Level Estimated
08:49PM 42.9328 -71.4358 160° South  Level Estimated
08:50PM 42.9328 -71.4358 160° South  Level Estimated
08:51PM 42.9328 -71.4358 160° South  Level Estimated
08:52PM 42.9328 -71.4358 160° South  Level Estimated
08:53PM 42.9328 -71.4358 160° South  Level Estimated